Etusivu
METAR-TAF:

METAR-TAF

Lentoasemat :

lentoasema

Trois-Rivières, Quebec, Kanada

Leveyspiiri: 46-21-06N, Pituuspiiri: 72-40-50W, korkeus merenpinnasta: 61 m

Tämänhetkinen sää

Tämä raportti tehtiin 2 tuntia ja 16 minuuttia sitten, kello 21.00 UTC
Tuuli 7 kn pohjoisesta
Lämpötila -4°C
Kosteus 68%
Ilmanpaine 1011 hPa
Näkyvyys: 14.5 km
selkeää

METAR: CYRQ 282100Z AUTO 01007KT 9SM CLR M04/M09 A2986 RMK SLP115

Aika: 18:16 (23:16 UTC)

Sääennuste

Tämä raportti tehtiin 3 tuntia ja 38 minuuttia sitten, kello 19.38 UTC
Ennuste voimassa 28. päivästä klo 20 UTC - 29. päivään klo 08 UTC
Tuuli 8 kn pohjoisesta
Näkyvyys: 10 km
Hajanaisia pilviä 2500 ft:n korkeudessa
From 29. päivästä klo 0000 UTC
Tuuli 5 kn pohjoisen/luoteesta
Näkyvyys: 10 km
selkeää

TAF: CYRQ 281938Z 2820/2908 36008KT P6SM SCT025 FM290000 34005KT P6SM SKC RMK FCST BASED ON AUTO OBS. NXT FCST BY 290200Z

Säähavainnot ja -ennusteet yli 4000 lentoasemalta (METAR- ja TAF-raportit).

Käytössä olevat sääasemat on merkitty karttaan keltaisilla ja punaisilla pisteillä.

Aseta hiiri pisteen päälle nähdäksesi sääaseman nimen.

Klikkaa sitten nähdäksesi säähavainnot ja -ennusteet.

Kartan vaihtaminen: klikkaa mustalla rastilla varustettuja vihreitä pisteitä, niin voit zoomata sisään; viivalla varustettua vihreää pistettä, niin voit zoomata ulos tai vihreitä nuolia, niin pääset viereisille kartoille.


METAR-TAF: